createdAt,value
2023-04-09T00:01:25.729Z,8.94
2023-04-09T00:04:33.000Z,8.93
2023-04-09T00:07:38.817Z,8.95
2023-04-09T00:10:44.734Z,8.99
2023-04-09T00:13:52.756Z,9.09
2023-04-09T00:16:58.031Z,9.15
2023-04-09T00:20:03.620Z,9.29
2023-04-09T00:23:10.702Z,9.30
2023-04-09T00:26:17.017Z,9.21
2023-04-09T00:29:23.642Z,9.18
2023-04-09T00:32:28.973Z,9.23
2023-04-09T00:35:34.391Z,9.09
2023-04-09T00:38:40.807Z,9.21
2023-04-09T00:41:46.258Z,9.14
2023-04-09T00:44:51.496Z,9.08
2023-04-09T00:47:56.839Z,9.29
2023-04-09T00:51:02.351Z,9.22
2023-04-09T00:56:35.013Z,9.34
2023-04-09T01:02:07.594Z,8.99
2023-04-09T01:10:56.635Z,8.87
2023-04-09T01:14:16.768Z,8.79
2023-04-09T01:17:26.445Z,8.81
2023-04-09T01:20:50.242Z,8.63
2023-04-09T01:24:37.142Z,8.59
2023-04-09T01:27:48.052Z,8.59
2023-04-09T01:30:54.362Z,8.57
2023-04-09T01:34:00.774Z,8.55
2023-04-09T01:39:37.276Z,8.64
2023-04-09T01:42:42.816Z,8.28
2023-04-09T01:45:49.588Z,8.30
2023-04-09T01:48:55.940Z,8.41
2023-04-09T01:52:01.320Z,8.41
2023-04-09T01:55:07.132Z,8.36
2023-04-09T01:58:12.438Z,8.30
2023-04-09T02:01:25.108Z,8.26
2023-04-09T02:04:39.640Z,8.22
2023-04-09T02:10:14.319Z,8.10
2023-04-09T02:15:45.556Z,8.02
2023-04-09T02:18:50.847Z,8.01
2023-04-09T02:24:23.591Z,8.20
2023-04-09T02:29:58.263Z,8.28
2023-04-09T02:35:30.414Z,8.51
2023-04-09T02:38:36.052Z,8.48
2023-04-09T02:41:41.790Z,8.52
2023-04-09T02:44:48.518Z,8.37
2023-04-09T02:47:54.516Z,8.40
2023-04-09T02:51:04.778Z,8.44
2023-04-09T02:54:10.820Z,8.49
2023-04-09T02:57:16.143Z,8.51
2023-04-09T03:02:50.208Z,8.57
2023-04-09T03:05:56.434Z,8.65
2023-04-09T03:09:02.027Z,8.61
2023-04-09T03:14:39.277Z,8.47
2023-04-09T03:17:44.968Z,8.54
2023-04-09T03:20:43.600Z,8.59
2023-04-09T03:23:49.750Z,8.75
2023-04-09T03:29:22.484Z,8.62
2023-04-09T03:34:57.407Z,8.73
2023-04-09T03:40:30.764Z,8.65
2023-04-09T03:46:03.171Z,8.74
2023-04-09T03:49:09.058Z,8.78
2023-04-09T03:54:41.292Z,8.89
2023-04-09T04:00:15.692Z,8.86
2023-04-09T04:03:17.276Z,8.90
2023-04-09T04:08:54.066Z,8.91
2023-04-09T04:14:31.792Z,8.91
2023-04-09T04:20:05.883Z,9.06
2023-04-09T04:25:39.524Z,8.89
2023-04-09T04:31:17.202Z,8.94
2023-04-09T04:37:07.483Z,9.08
2023-04-09T04:40:14.563Z,8.89
2023-04-09T04:43:22.864Z,8.90
2023-04-09T04:48:57.536Z,9.04
2023-04-09T04:52:03.104Z,9.05
2023-04-09T04:57:35.562Z,9.01
2023-04-09T05:03:10.667Z,9.02
2023-04-09T05:06:22.635Z,9.09
2023-04-09T05:09:28.575Z,9.13
2023-04-09T05:12:37.705Z,9.35
2023-04-09T05:15:44.966Z,9.28
2023-04-09T05:18:51.198Z,9.35
2023-04-09T05:21:57.627Z,9.39
2023-04-09T05:25:03.400Z,9.39
2023-04-09T05:28:12.679Z,9.50
2023-04-09T05:31:19.594Z,9.56
2023-04-09T05:34:27.318Z,9.62
2023-04-09T05:37:32.977Z,9.73
2023-04-09T05:40:38.603Z,9.78
2023-04-09T05:43:44.727Z,9.95
2023-04-09T05:46:50.429Z,10.06
2023-04-09T05:49:58.964Z,9.97
2023-04-09T05:53:05.726Z,9.94
2023-04-09T05:56:12.038Z,9.98
2023-04-09T05:59:19.565Z,10.07
2023-04-09T06:02:25.660Z,10.07
2023-04-09T06:05:31.950Z,10.19
2023-04-09T06:08:40.526Z,10.19
2023-04-09T06:14:12.057Z,10.30
2023-04-09T06:19:44.162Z,10.54
2023-04-09T06:25:16.276Z,10.80
2023-04-09T06:28:21.934Z,10.91
2023-04-09T06:33:54.994Z,11.09
2023-04-09T06:39:28.141Z,11.14
2023-04-09T06:42:33.807Z,11.09
2023-04-09T06:45:51.161Z,11.21
2023-04-09T06:48:56.752Z,11.19
2023-04-09T06:52:03.102Z,11.18
2023-04-09T06:55:08.784Z,11.30
2023-04-09T06:58:14.897Z,11.24
2023-04-09T07:01:21.771Z,11.31
2023-04-09T07:06:54.052Z,11.14
2023-04-09T07:12:29.127Z,11.15
2023-04-09T07:18:00.518Z,11.07
2023-04-09T07:21:06.823Z,11.10
2023-04-09T07:26:37.787Z,11.03
2023-04-09T07:29:43.367Z,10.89
2023-04-09T07:32:49.048Z,10.97
2023-04-09T07:35:56.064Z,10.91
2023-04-09T07:39:01.913Z,11.11
2023-04-09T07:44:34.810Z,11.35
2023-04-09T07:52:38.897Z,11.51
2023-04-09T07:55:44.501Z,11.45
2023-04-09T07:58:51.642Z,11.41
2023-04-09T08:01:58.450Z,11.25
2023-04-09T08:05:03.822Z,11.24
2023-04-09T08:08:10.760Z,11.28
2023-04-09T08:11:16.642Z,11.16
2023-04-09T08:14:22.437Z,11.11
2023-04-09T08:17:28.710Z,11.09
2023-04-09T08:20:34.948Z,11.13
2023-04-09T08:23:41.941Z,11.10
2023-04-09T08:26:48.727Z,11.14
2023-04-09T08:29:54.842Z,11.17
2023-04-09T08:33:00.751Z,11.13
2023-04-09T08:36:06.195Z,11.00
2023-04-09T08:39:12.279Z,10.96
2023-04-09T08:42:19.757Z,11.11
2023-04-09T08:45:26.903Z,11.02
2023-04-09T08:48:32.180Z,10.95
2023-04-09T08:54:12.114Z,10.99
2023-04-09T08:57:21.795Z,11.10
2023-04-09T09:02:53.662Z,11.05
2023-04-09T09:06:00.787Z,11.10
2023-04-09T09:09:25.411Z,11.08
2023-04-09T09:12:45.935Z,11.11
2023-04-09T09:15:51.422Z,11.13
2023-04-09T09:18:59.553Z,11.19
2023-04-09T09:22:10.574Z,11.27
2023-04-09T09:25:16.810Z,11.38
2023-04-09T09:28:27.020Z,11.60
2023-04-09T09:31:34.296Z,11.97
2023-04-09T09:34:39.987Z,12.11
2023-04-09T09:37:46.157Z,12.32
2023-04-09T09:40:52.764Z,12.48
2023-04-09T09:43:59.817Z,12.67
2023-04-09T09:47:04.995Z,12.73
2023-04-09T09:50:11.332Z,12.86
2023-04-09T09:53:20.741Z,12.97
2023-04-09T09:56:37.890Z,13.09
2023-04-09T09:59:46.309Z,13.01
2023-04-09T10:03:05.549Z,13.11
2023-04-09T10:06:11.724Z,13.04
2023-04-09T10:09:18.941Z,13.03
2023-04-09T10:12:23.839Z,12.91
2023-04-09T10:20:33.956Z,13.01
2023-04-09T10:23:55.288Z,13.13
2023-04-09T10:27:01.456Z,13.19
2023-04-09T10:30:08.605Z,13.27
2023-04-09T10:33:28.555Z,13.19
2023-04-09T10:36:34.836Z,13.00
2023-04-09T10:39:46.206Z,12.95
2023-04-09T10:42:52.986Z,12.84
2023-04-09T10:46:01.051Z,12.86
2023-04-09T10:49:27.625Z,12.77
2023-04-09T10:52:32.863Z,12.91
2023-04-09T10:55:56.181Z,12.70
2023-04-09T10:59:02.695Z,12.72
2023-04-09T11:02:10.475Z,12.47
2023-04-09T11:05:35.638Z,12.22
2023-04-09T11:08:49.629Z,12.11
2023-04-09T11:11:55.466Z,12.04
2023-04-09T11:15:00.266Z,12.02
2023-04-09T11:18:06.442Z,11.96
2023-04-09T11:23:43.785Z,11.70
2023-04-09T11:26:53.015Z,11.74
2023-04-09T11:32:24.236Z,11.55
2023-04-09T11:38:01.336Z,11.46
2023-04-09T11:43:33.378Z,11.52
2023-04-09T11:49:09.539Z,11.43
2023-04-09T11:54:46.648Z,11.51
2023-04-09T11:57:58.216Z,11.40
2023-04-09T12:01:06.734Z,11.39
2023-04-09T12:04:13.924Z,11.43
2023-04-09T12:07:24.842Z,11.51
2023-04-09T12:13:02.217Z,11.60
2023-04-09T12:16:12.983Z,11.62
2023-04-09T12:19:21.562Z,11.68
2023-04-09T12:22:28.190Z,11.66
2023-04-09T12:28:03.447Z,11.68
2023-04-09T12:31:10.412Z,11.69
2023-04-09T12:34:17.308Z,11.50
2023-04-09T12:37:27.550Z,11.36
2023-04-09T12:40:34.284Z,11.38
2023-04-09T12:43:39.907Z,11.41
2023-04-09T12:46:46.235Z,11.45
2023-04-09T12:49:53.031Z,11.42
2023-04-09T12:55:25.932Z,11.67
2023-04-09T13:00:59.232Z,11.83
2023-04-09T13:04:05.725Z,11.73
2023-04-09T13:07:12.830Z,11.74
2023-04-09T13:10:19.770Z,11.82
2023-04-09T13:13:26.425Z,11.72
2023-04-09T13:19:14.929Z,11.52
2023-04-09T13:22:20.136Z,11.56
2023-04-09T13:25:31.684Z,11.47
2023-04-09T13:28:39.854Z,11.43
2023-04-09T13:31:49.137Z,11.50
2023-04-09T13:37:22.315Z,11.56
2023-04-09T13:40:29.241Z,11.61
2023-04-09T13:43:46.379Z,11.62
2023-04-09T13:46:53.484Z,11.58
2023-04-09T13:50:00.572Z,11.56
2023-04-09T13:55:37.669Z,11.52
2023-04-09T13:58:42.655Z,11.59
2023-04-09T14:01:49.730Z,11.51
2023-04-09T14:04:55.440Z,11.58
2023-04-09T14:08:00.746Z,11.68
2023-04-09T14:11:06.528Z,11.62
2023-04-09T14:14:11.571Z,11.60
2023-04-09T14:17:17.121Z,11.63
2023-04-09T14:20:23.491Z,11.59
2023-04-09T14:23:29.457Z,11.54
2023-04-09T14:26:35.785Z,11.52
2023-04-09T14:29:43.111Z,11.49
2023-04-09T14:32:50.273Z,11.44
2023-04-09T14:35:56.331Z,11.41
2023-04-09T14:39:02.888Z,11.36
2023-04-09T14:42:09.359Z,11.41
2023-04-09T14:45:14.818Z,11.29
2023-04-09T14:48:21.127Z,11.27
2023-04-09T14:51:27.370Z,11.24
2023-04-09T14:54:33.280Z,11.18
2023-04-09T14:57:39.957Z,11.19
2023-04-09T15:00:48.653Z,11.11
2023-04-09T15:03:55.539Z,11.09
2023-04-09T15:07:00.575Z,11.06
2023-04-09T15:10:06.336Z,11.09
2023-04-09T15:13:12.470Z,11.06
2023-04-09T15:16:19.040Z,11.20
2023-04-09T15:19:24.773Z,11.03
2023-04-09T15:22:30.408Z,10.98
2023-04-09T15:28:02.562Z,11.08
2023-04-09T15:31:09.487Z,11.09
2023-04-09T15:34:15.671Z,11.12
2023-04-09T15:37:22.515Z,10.97
2023-04-09T15:40:30.000Z,10.90
2023-04-09T15:46:08.394Z,10.83
2023-04-09T15:49:14.585Z,10.85
2023-04-09T15:52:21.924Z,10.87
2023-04-09T15:57:58.968Z,10.77
2023-04-09T16:01:04.677Z,10.66
2023-04-09T16:04:11.442Z,10.59
2023-04-09T16:07:18.977Z,10.60
2023-04-09T16:10:25.780Z,10.64
2023-04-09T16:13:31.655Z,10.83
2023-04-09T16:16:37.713Z,10.80
2023-04-09T16:19:44.116Z,10.67
2023-04-09T16:22:50.261Z,10.64
2023-04-09T16:25:55.383Z,10.78
2023-04-09T16:31:28.019Z,10.67
2023-04-09T16:34:34.182Z,10.65
2023-04-09T16:40:06.004Z,10.69
2023-04-09T16:45:39.212Z,10.89
2023-04-09T16:51:11.422Z,10.74
2023-04-09T16:56:44.379Z,10.67
2023-04-09T16:59:51.597Z,10.64
2023-04-09T17:05:25.237Z,10.58
2023-04-09T17:13:28.479Z,10.61
2023-04-09T17:16:36.022Z,10.62
2023-04-09T17:22:07.899Z,10.50
2023-04-09T17:25:17.373Z,10.46
2023-04-09T17:30:56.402Z,10.37
2023-04-09T17:34:01.608Z,10.35
2023-04-09T17:39:50.274Z,10.22
2023-04-09T17:42:56.346Z,10.19
2023-04-09T17:46:04.513Z,10.26
2023-04-09T17:51:36.816Z,10.29
2023-04-09T17:54:47.803Z,10.29
2023-04-09T17:57:53.644Z,10.27
2023-04-09T18:01:00.176Z,10.16
2023-04-09T18:04:05.499Z,10.20
2023-04-09T18:07:13.102Z,10.24
2023-04-09T18:12:49.035Z,10.14
2023-04-09T18:15:55.384Z,10.18
2023-04-09T18:19:01.316Z,10.18
2023-04-09T18:22:07.189Z,10.29
2023-04-09T18:25:14.198Z,10.18
2023-04-09T18:28:21.144Z,10.19
2023-04-09T18:31:28.205Z,10.28
2023-04-09T18:34:33.598Z,10.19
2023-04-09T18:37:41.143Z,10.15
2023-04-09T18:40:48.117Z,10.27
2023-04-09T18:43:53.406Z,10.11
2023-04-09T18:46:59.435Z,10.24
2023-04-09T18:50:06.228Z,10.32
2023-04-09T18:53:13.655Z,10.18
2023-04-09T18:56:18.964Z,10.21
2023-04-09T18:59:25.885Z,10.38
2023-04-09T19:02:32.462Z,10.33
2023-04-09T19:05:38.948Z,10.15
2023-04-09T19:08:45.478Z,10.31
2023-04-09T19:11:51.785Z,10.51
2023-04-09T19:14:58.082Z,10.12
2023-04-09T19:20:30.220Z,10.09
2023-04-09T19:23:36.403Z,10.17
2023-04-09T19:26:41.645Z,10.21
2023-04-09T19:29:46.510Z,9.86
2023-04-09T19:32:51.979Z,9.92
2023-04-09T19:35:57.381Z,9.91
2023-04-09T19:39:04.589Z,10.04
2023-04-09T19:42:10.343Z,9.82
2023-04-09T19:45:16.666Z,9.79
2023-04-09T19:48:22.447Z,9.80
2023-04-09T19:51:32.964Z,9.75
2023-04-09T19:54:37.855Z,9.67
2023-04-09T20:00:11.782Z,9.62
2023-04-09T20:03:19.026Z,9.55
2023-04-09T20:06:26.222Z,9.70
2023-04-09T20:09:34.098Z,9.75
2023-04-09T20:12:39.908Z,9.56
2023-04-09T20:15:45.763Z,9.43
2023-04-09T20:18:52.108Z,9.38
2023-04-09T20:21:59.655Z,9.48
2023-04-09T20:25:07.799Z,9.50
2023-04-09T20:28:15.294Z,9.51
2023-04-09T20:31:21.951Z,9.32
2023-04-09T20:34:30.603Z,9.16
2023-04-09T20:37:36.290Z,9.21
2023-04-09T20:40:41.984Z,9.11
2023-04-09T20:43:47.658Z,9.14
2023-04-09T20:46:54.858Z,9.10
2023-04-09T20:50:03.423Z,9.05
2023-04-09T20:53:10.777Z,8.99
2023-04-09T20:56:16.177Z,9.00
2023-04-09T20:59:22.820Z,9.02
2023-04-09T21:02:28.604Z,9.16
2023-04-09T21:05:34.328Z,9.05
2023-04-09T21:08:41.440Z,9.03
2023-04-09T21:11:47.505Z,9.07
2023-04-09T21:14:53.083Z,8.90
2023-04-09T21:17:59.452Z,9.00
2023-04-09T21:21:05.662Z,9.01
2023-04-09T21:24:11.608Z,8.97
2023-04-09T21:27:17.082Z,9.02
2023-04-09T21:30:23.855Z,8.91
2023-04-09T21:33:30.177Z,8.87
2023-04-09T21:36:37.916Z,8.90
2023-04-09T21:39:44.213Z,8.92
2023-04-09T21:42:50.131Z,8.99
2023-04-09T21:45:55.643Z,8.99
2023-04-09T21:49:00.636Z,8.87
2023-04-09T21:52:07.635Z,8.88
2023-04-09T21:55:14.095Z,8.86
2023-04-09T21:58:20.597Z,8.89
2023-04-09T22:01:29.311Z,8.99
2023-04-09T22:04:33.383Z,9.00
2023-04-09T22:07:38.815Z,9.00
2023-04-09T22:10:43.440Z,9.02
2023-04-09T22:13:48.916Z,9.08
2023-04-09T22:16:55.383Z,9.04
2023-04-09T22:20:01.396Z,8.95
2023-04-09T22:23:10.665Z,8.96
2023-04-09T22:26:16.397Z,9.04
2023-04-09T22:29:24.926Z,9.12
2023-04-09T22:32:30.813Z,9.05
2023-04-09T22:35:36.748Z,9.15
2023-04-09T22:38:45.422Z,9.16
2023-04-09T22:41:52.214Z,9.23
2023-04-09T22:44:58.023Z,9.16
2023-04-09T22:48:04.226Z,9.17
2023-04-09T22:51:10.130Z,9.21
2023-04-09T22:54:15.219Z,9.26
2023-04-09T22:57:20.578Z,9.32
2023-04-09T23:00:27.591Z,9.29
2023-04-09T23:03:33.203Z,9.25
2023-04-09T23:06:41.007Z,9.06
2023-04-09T23:09:47.156Z,9.08
2023-04-09T23:12:53.470Z,9.10
2023-04-09T23:15:59.912Z,9.13
2023-04-09T23:19:08.840Z,9.03
2023-04-09T23:22:14.243Z,8.96
2023-04-09T23:25:20.945Z,8.94
2023-04-09T23:28:27.770Z,9.02
2023-04-09T23:31:34.321Z,9.03
2023-04-09T23:34:40.143Z,9.09
2023-04-09T23:37:45.448Z,9.10
2023-04-09T23:40:50.757Z,9.07
2023-04-09T23:43:56.210Z,8.99
2023-04-09T23:47:02.005Z,8.95
2023-04-09T23:57:46.857Z,8.79
